createdAt,value
2024-02-08T00:01:06.448Z,9.38
2024-02-08T00:04:15.505Z,9.35
2024-02-08T00:07:37.083Z,10.43
2024-02-08T00:10:40.285Z,9.50
2024-02-08T00:13:44.105Z,9.82
2024-02-08T00:16:53.922Z,9.30
2024-02-08T00:20:00.853Z,9.43
2024-02-08T00:23:04.667Z,9.50
2024-02-08T00:26:12.971Z,9.68
2024-02-08T00:29:33.941Z,9.65
2024-02-08T00:32:58.124Z,9.40
2024-02-08T00:36:16.432Z,9.30
2024-02-08T00:39:34.077Z,9.63
2024-02-08T00:43:06.335Z,9.25
2024-02-08T00:46:26.423Z,9.55
2024-02-08T00:49:47.098Z,9.90
2024-02-08T00:53:11.183Z,9.35
2024-02-08T00:56:28.280Z,9.03
2024-02-08T00:59:49.028Z,8.52
2024-02-08T01:03:16.275Z,8.98
2024-02-08T01:06:39.095Z,8.55
2024-02-08T01:10:03.022Z,9.25
2024-02-08T01:13:23.239Z,9.10
2024-02-08T01:16:34.609Z,9.80
2024-02-08T01:19:51.026Z,9.07
2024-02-08T01:23:26.980Z,8.82
2024-02-08T01:26:48.351Z,8.63
2024-02-08T01:30:08.078Z,7.83
2024-02-08T01:33:35.349Z,8.52
2024-02-08T01:36:55.050Z,8.50
2024-02-08T01:40:24.878Z,8.50
2024-02-08T01:43:38.145Z,8.43
2024-02-08T01:46:54.145Z,8.00
2024-02-08T01:50:21.031Z,8.15
2024-02-08T01:53:43.912Z,8.30
2024-02-08T01:57:05.352Z,8.27
2024-02-08T02:00:28.108Z,8.13
2024-02-08T02:03:55.046Z,7.60
2024-02-08T02:07:10.724Z,8.32
2024-02-08T02:10:33.699Z,7.78
2024-02-08T02:13:49.845Z,7.90
2024-02-08T02:17:11.391Z,8.32
2024-02-08T02:20:20.161Z,12.87
2024-02-08T02:23:25.298Z,17.40
2024-02-08T02:26:36.335Z,17.00
2024-02-08T02:29:46.572Z,11.45
2024-02-08T02:33:11.914Z,18.20
2024-02-08T02:36:47.930Z,10.63
2024-02-08T02:40:15.751Z,9.00
2024-02-08T02:43:40.775Z,8.63
2024-02-08T02:47:05.880Z,7.90
2024-02-08T02:50:22.747Z,8.13
2024-02-08T02:53:45.736Z,8.43
2024-02-08T02:57:06.744Z,8.05
2024-02-08T03:00:22.960Z,8.20
2024-02-08T03:03:43.213Z,8.07
2024-02-08T03:07:05.797Z,7.47
2024-02-08T03:10:37.954Z,8.37
2024-02-08T03:13:50.620Z,8.30
2024-02-08T03:17:14.800Z,8.15
2024-02-08T03:20:32.003Z,7.65
2024-02-08T03:23:53.678Z,7.75
2024-02-08T03:27:26.757Z,8.20
2024-02-08T03:30:50.709Z,7.60
2024-02-08T03:34:16.768Z,7.40
2024-02-08T03:37:37.035Z,7.40
2024-02-08T03:40:55.938Z,7.80
2024-02-08T03:44:20.737Z,7.67
2024-02-08T03:47:34.091Z,7.35
2024-02-08T03:50:59.589Z,7.97
2024-02-08T03:54:20.602Z,7.85
2024-02-08T03:57:37.631Z,7.45
2024-02-08T04:00:58.782Z,7.70
2024-02-08T04:04:23.702Z,7.97
2024-02-08T04:07:58.341Z,7.95
2024-02-08T04:11:05.118Z,7.45
2024-02-08T04:14:45.567Z,7.93
2024-02-08T04:18:25.776Z,7.53
2024-02-08T04:21:49.330Z,7.57
2024-02-08T04:25:17.990Z,7.55
2024-02-08T04:28:45.761Z,7.88
2024-02-08T04:32:08.173Z,7.38
2024-02-08T04:35:44.298Z,8.40
2024-02-08T04:39:19.312Z,7.10
2024-02-08T04:42:52.056Z,8.25
2024-02-08T04:46:14.476Z,7.40
2024-02-08T04:49:38.618Z,7.22
2024-02-08T04:53:01.659Z,7.33
2024-02-08T04:56:10.608Z,7.88
2024-02-08T04:59:21.948Z,7.88
2024-02-08T05:02:28.251Z,7.75
2024-02-08T05:05:51.493Z,8.07
2024-02-08T05:09:27.450Z,7.20
2024-02-08T05:12:50.505Z,7.90
2024-02-08T05:16:06.706Z,7.60
2024-02-08T05:19:31.442Z,7.38
2024-02-08T05:22:52.628Z,7.32
2024-02-08T05:26:22.481Z,6.97
2024-02-08T05:29:45.507Z,7.18
2024-02-08T05:32:48.582Z,6.80
2024-02-08T05:35:57.884Z,7.70
2024-02-08T05:39:05.622Z,7.50
2024-02-08T05:42:24.197Z,7.90
2024-02-08T05:45:39.069Z,8.25
2024-02-08T05:49:06.369Z,7.50
2024-02-08T05:52:25.950Z,6.53
2024-02-08T05:55:50.069Z,6.65
2024-02-08T05:59:07.348Z,6.80
2024-02-08T06:02:26.008Z,7.07
2024-02-08T06:05:33.001Z,8.52
2024-02-08T06:09:02.230Z,7.35
2024-02-08T06:12:46.783Z,7.82
2024-02-08T06:16:22.526Z,8.30
2024-02-08T06:19:35.849Z,8.32
2024-02-08T06:22:49.938Z,8.57
2024-02-08T06:26:13.178Z,9.40
2024-02-08T06:29:50.632Z,8.90
2024-02-08T06:33:12.680Z,9.27
2024-02-08T06:36:25.860Z,8.00
2024-02-08T06:39:46.294Z,8.68
2024-02-08T06:43:16.331Z,9.63
2024-02-08T06:46:49.432Z,9.95
2024-02-08T06:50:25.304Z,8.00
2024-02-08T06:54:02.476Z,8.88
2024-02-08T06:57:29.031Z,9.73
2024-02-08T07:01:14.448Z,8.10
2024-02-08T07:04:48.885Z,9.68
2024-02-08T07:08:19.965Z,10.53
2024-02-08T07:12:03.626Z,8.70
2024-02-08T07:15:45.513Z,8.63
2024-02-08T07:19:16.123Z,9.55
2024-02-08T07:22:59.451Z,9.50
2024-02-08T07:26:49.780Z,8.70
2024-02-08T07:30:17.388Z,9.27
2024-02-08T07:33:47.238Z,9.38
2024-02-08T07:37:12.441Z,9.57
2024-02-08T07:40:24.959Z,9.75
2024-02-08T07:43:36.953Z,9.70
2024-02-08T07:46:57.662Z,9.52
2024-02-08T07:50:29.609Z,9.88
2024-02-08T07:54:14.502Z,12.10
2024-02-08T07:57:36.668Z,9.48
2024-02-08T08:00:45.653Z,9.47
2024-02-08T08:03:58.852Z,9.15
2024-02-08T08:07:30.323Z,8.85
2024-02-08T08:11:05.096Z,8.98
2024-02-08T08:14:44.217Z,10.13
2024-02-08T08:18:03.385Z,10.00
2024-02-08T08:21:27.770Z,9.30
2024-02-08T08:24:58.061Z,9.63
2024-02-08T08:28:31.559Z,9.50
2024-02-08T08:32:03.872Z,9.95
2024-02-08T08:48:35.430Z,6.80
2024-02-08T08:52:08.446Z,6.97
2024-02-08T08:55:53.497Z,6.20
2024-02-08T08:59:06.729Z,5.43
2024-02-08T09:02:38.533Z,5.22
2024-02-08T09:06:02.851Z,7.57
2024-02-08T09:09:29.667Z,8.05
2024-02-08T09:12:41.905Z,7.50
2024-02-08T09:16:18.008Z,7.30
2024-02-08T09:19:29.824Z,6.68
2024-02-08T09:22:41.213Z,7.22
2024-02-08T09:26:09.634Z,7.30
2024-02-08T09:29:45.380Z,6.50
2024-02-08T09:32:54.624Z,6.60
2024-02-08T09:36:29.020Z,6.90
2024-02-08T09:40:27.576Z,7.80
2024-02-08T09:43:50.760Z,8.50
2024-02-08T09:47:13.141Z,6.40
2024-02-08T09:50:52.759Z,6.22
2024-02-08T09:54:33.284Z,6.30
2024-02-08T09:58:14.277Z,5.10
2024-02-08T10:01:44.463Z,4.95
2024-02-08T10:05:06.642Z,4.93
2024-02-08T10:08:42.479Z,4.30
2024-02-08T10:12:01.571Z,2.85
2024-02-08T10:15:17.122Z,3.20
2024-02-08T10:18:54.319Z,3.00
2024-02-08T10:22:30.853Z,2.27
2024-02-08T10:26:04.801Z,2.13
2024-02-08T10:29:17.553Z,1.80
2024-02-08T10:32:38.768Z,1.70
2024-02-08T10:36:04.482Z,1.88
2024-02-08T10:40:09.568Z,1.67
2024-02-08T10:43:48.225Z,3.10
2024-02-08T10:47:11.077Z,2.10
2024-02-08T10:50:39.791Z,2.00
2024-02-08T10:54:17.788Z,2.30
2024-02-08T10:58:02.983Z,1.70
2024-02-08T11:01:41.625Z,1.50
2024-02-08T11:05:39.940Z,1.80
2024-02-08T11:09:21.221Z,1.77
2024-02-08T11:12:56.431Z,1.90
2024-02-08T11:16:26.596Z,2.20
2024-02-08T11:19:58.461Z,1.30
2024-02-08T11:23:43.440Z,1.83
2024-02-08T11:27:17.912Z,1.40
2024-02-08T11:30:44.782Z,1.65
2024-02-08T11:34:32.452Z,1.60
2024-02-08T11:38:07.377Z,1.80
2024-02-08T11:41:34.675Z,1.67
2024-02-08T11:45:11.455Z,1.52
2024-02-08T11:48:49.369Z,2.08
2024-02-08T11:52:09.902Z,1.60
2024-02-08T11:55:38.450Z,1.42
2024-02-08T11:59:28.426Z,1.30
2024-02-08T12:03:05.801Z,2.78
2024-02-08T12:06:35.624Z,2.40
2024-02-08T12:10:21.109Z,2.43
2024-02-08T12:13:48.888Z,2.60
2024-02-08T12:17:03.865Z,3.20
2024-02-08T12:20:33.103Z,2.70
2024-02-08T12:24:05.003Z,2.72
2024-02-08T12:27:38.839Z,3.33
2024-02-08T12:30:55.554Z,3.08
2024-02-08T12:34:07.474Z,2.83
2024-02-08T12:37:19.988Z,3.50
2024-02-08T12:40:35.396Z,3.65
2024-02-08T12:43:48.092Z,3.13
2024-02-08T12:47:08.925Z,3.17
2024-02-08T12:50:29.110Z,3.58
2024-02-08T12:54:04.773Z,2.72
2024-02-08T12:57:28.641Z,2.97
2024-02-08T13:01:15.458Z,2.50
2024-02-08T13:04:47.139Z,3.05
2024-02-08T13:08:18.883Z,3.03
2024-02-08T13:11:51.179Z,3.97
2024-02-08T13:15:13.800Z,3.60
2024-02-08T13:18:26.156Z,3.30
2024-02-08T13:21:40.223Z,3.65
2024-02-08T13:24:57.920Z,4.43
2024-02-08T13:28:12.189Z,4.10
2024-02-08T13:31:35.471Z,4.65
2024-02-08T13:34:52.415Z,4.43
2024-02-08T13:37:59.174Z,4.22
2024-02-08T13:41:06.342Z,4.40
2024-02-08T13:44:32.654Z,4.20
2024-02-08T13:47:39.718Z,4.22
2024-02-08T13:50:58.367Z,5.17
2024-02-08T13:54:05.492Z,4.35
2024-02-08T13:57:25.982Z,5.07
2024-02-08T14:00:50.663Z,4.70
2024-02-08T14:04:22.648Z,4.85
2024-02-08T14:07:31.501Z,5.07
2024-02-08T14:10:38.529Z,5.22
2024-02-08T14:14:03.564Z,5.20
2024-02-08T14:17:27.744Z,5.18
2024-02-08T14:21:14.151Z,5.03
2024-02-08T14:25:01.942Z,4.90
2024-02-08T14:28:23.769Z,4.90
2024-02-08T14:31:49.361Z,5.32
2024-02-08T14:35:24.544Z,5.50
2024-02-08T14:38:46.571Z,5.05
2024-02-08T14:42:25.134Z,5.73
2024-02-08T14:46:02.189Z,6.40
2024-02-08T14:49:30.247Z,5.68
2024-02-08T14:52:51.247Z,6.15
2024-02-08T14:56:12.926Z,5.57
2024-02-08T14:59:35.801Z,5.97
2024-02-08T15:02:57.161Z,6.80
2024-02-08T15:06:01.975Z,7.13
2024-02-08T15:09:38.832Z,7.22
2024-02-08T15:12:58.816Z,7.10
2024-02-08T15:16:09.393Z,7.83
2024-02-08T15:19:28.103Z,6.95
2024-02-08T15:22:36.228Z,8.40
2024-02-08T15:25:46.716Z,8.82
2024-02-08T15:29:12.881Z,9.55
2024-02-08T15:32:32.503Z,8.50
2024-02-08T15:35:45.093Z,9.32
2024-02-08T15:39:02.659Z,9.15
2024-02-08T15:42:19.819Z,8.40
2024-02-08T15:45:36.449Z,9.43
2024-02-08T15:48:51.697Z,9.17
2024-02-08T15:51:59.508Z,8.90
2024-02-08T15:55:21.926Z,9.73
2024-02-08T15:58:46.697Z,9.02
2024-02-08T16:01:59.565Z,9.52
2024-02-08T16:05:16.594Z,9.27
2024-02-08T16:08:43.479Z,9.10
2024-02-08T16:12:24.498Z,9.40
2024-02-08T16:16:00.027Z,8.77
2024-02-08T16:19:25.451Z,9.10
2024-02-08T16:22:35.541Z,9.50
2024-02-08T16:25:46.996Z,10.68
2024-02-08T16:28:52.198Z,10.15
2024-02-08T16:31:56.449Z,10.38
2024-02-08T16:35:23.886Z,10.25
2024-02-08T16:38:31.675Z,9.77
2024-02-08T16:41:50.426Z,11.10
2024-02-08T16:45:26.030Z,10.07
2024-02-08T16:49:10.992Z,11.30
2024-02-08T16:52:44.110Z,10.60
2024-02-08T16:55:51.241Z,9.90
2024-02-08T16:59:10.277Z,10.13
2024-02-08T17:02:28.628Z,11.18
2024-02-08T17:05:55.484Z,10.90
2024-02-08T17:09:22.025Z,10.07
2024-02-08T17:13:12.353Z,10.83
2024-02-08T17:16:37.954Z,10.65
2024-02-08T17:20:24.205Z,11.38
2024-02-08T17:23:44.627Z,13.65
2024-02-08T17:27:01.015Z,10.88
2024-02-08T17:30:19.342Z,10.03
2024-02-08T17:33:32.231Z,10.35
2024-02-08T17:36:50.638Z,11.35
2024-02-08T17:40:22.682Z,11.63
2024-02-08T17:43:44.596Z,11.95
2024-02-08T17:46:54.313Z,11.03
2024-02-08T17:50:06.745Z,12.48
2024-02-08T17:53:27.157Z,12.07
2024-02-08T17:56:47.481Z,12.18
2024-02-08T18:00:03.015Z,12.40
2024-02-08T18:03:31.377Z,11.77
2024-02-08T18:06:45.799Z,12.05
2024-02-08T18:09:56.049Z,12.25
2024-02-08T18:13:19.816Z,12.20
2024-02-08T18:16:31.624Z,12.40
2024-02-08T18:19:43.955Z,12.53
2024-02-08T18:22:52.051Z,12.65
2024-02-08T18:26:05.588Z,13.52
2024-02-08T18:29:09.283Z,15.18
2024-02-08T18:32:20.741Z,13.40
2024-02-08T18:35:27.433Z,14.37
2024-02-08T18:38:50.820Z,13.77
2024-02-08T18:42:09.217Z,13.30
2024-02-08T18:45:29.228Z,12.90
2024-02-08T18:48:35.778Z,12.30
2024-02-08T18:52:02.875Z,11.37
2024-02-08T18:55:32.054Z,10.80
2024-02-08T18:58:44.417Z,10.10
2024-02-08T19:02:04.876Z,10.05
2024-02-08T19:05:17.537Z,11.23
2024-02-08T19:08:43.604Z,10.40
2024-02-08T19:12:17.166Z,10.18
2024-02-08T19:15:30.748Z,10.95
2024-02-08T19:18:59.638Z,10.52
2024-02-08T19:22:18.296Z,10.98
2024-02-08T19:25:37.027Z,11.10
2024-02-08T19:28:44.019Z,10.68
2024-02-08T19:31:48.079Z,11.07
2024-02-08T19:34:52.689Z,10.00
2024-02-08T19:38:05.485Z,11.15
2024-02-08T19:41:30.633Z,10.37
2024-02-08T19:44:50.419Z,10.27
2024-02-08T19:48:18.997Z,10.40
2024-02-08T19:51:27.501Z,10.02
2024-02-08T19:54:43.862Z,9.20
2024-02-08T19:57:50.676Z,8.83
2024-02-08T20:01:00.280Z,8.90
2024-02-08T20:04:25.816Z,9.52
2024-02-08T20:07:41.855Z,9.80
2024-02-08T20:10:58.857Z,8.88
2024-02-08T20:14:21.195Z,8.73
2024-02-08T20:17:40.842Z,8.93
2024-02-08T20:20:58.247Z,9.50
2024-02-08T20:24:13.181Z,9.43
2024-02-08T20:27:29.672Z,9.23
2024-02-08T20:31:01.465Z,9.20
2024-02-08T20:34:22.930Z,9.02
2024-02-08T20:37:34.299Z,8.80
2024-02-08T20:40:57.526Z,8.13
2024-02-08T20:44:24.602Z,8.30
2024-02-08T20:47:48.203Z,8.10
2024-02-08T20:51:13.133Z,8.30
2024-02-08T20:54:34.204Z,7.95
2024-02-08T20:57:54.238Z,8.45
2024-02-08T21:01:03.126Z,8.00
2024-02-08T21:04:07.129Z,8.23
2024-02-08T21:07:26.411Z,8.48
2024-02-08T21:10:32.842Z,8.23
2024-02-08T21:13:50.249Z,7.63
2024-02-08T21:17:13.267Z,7.63
2024-02-08T21:20:31.787Z,7.57
2024-02-08T21:24:01.291Z,7.05
2024-02-08T21:27:27.369Z,7.57
2024-02-08T21:30:46.316Z,7.97
2024-02-08T21:34:02.435Z,7.30
2024-02-08T21:37:22.142Z,8.10
2024-02-08T21:40:51.592Z,7.25
2024-02-08T21:44:15.838Z,6.63
2024-02-08T21:47:29.601Z,7.20
2024-02-08T21:50:55.214Z,7.40
2024-02-08T21:54:17.201Z,6.70
2024-02-08T21:57:37.205Z,7.53
2024-02-08T22:04:18.500Z,8.70
2024-02-08T22:07:34.433Z,8.40
2024-02-08T22:10:57.224Z,7.80
2024-02-08T22:14:17.188Z,7.60
2024-02-08T22:17:21.690Z,7.80
2024-02-08T22:20:29.635Z,8.13
2024-02-08T22:23:51.776Z,7.20
2024-02-08T22:27:05.067Z,7.13
2024-02-08T22:30:29.157Z,7.53
2024-02-08T22:33:54.953Z,7.30
2024-02-08T22:37:15.943Z,7.68
2024-02-08T22:40:26.871Z,7.50
2024-02-08T22:43:42.600Z,8.03
2024-02-08T22:47:10.915Z,7.22
2024-02-08T22:50:34.258Z,7.68
2024-02-08T22:53:56.849Z,8.13
2024-02-08T22:57:00.040Z,8.32
2024-02-08T23:00:23.768Z,7.90
2024-02-08T23:03:27.326Z,8.07
2024-02-08T23:06:36.679Z,7.75
2024-02-08T23:09:48.490Z,8.07
2024-02-08T23:12:54.521Z,7.88
2024-02-08T23:15:58.695Z,8.10
2024-02-08T23:19:06.373Z,7.80
2024-02-08T23:22:28.091Z,7.72
2024-02-08T23:25:43.079Z,7.60
2024-02-08T23:28:49.822Z,7.80
2024-02-08T23:31:53.209Z,7.10
2024-02-08T23:35:04.774Z,7.53
2024-02-08T23:38:13.418Z,8.02
2024-02-08T23:41:36.886Z,7.63
2024-02-08T23:45:06.269Z,7.28
2024-02-08T23:48:30.307Z,7.37
2024-02-08T23:51:49.477Z,7.30
2024-02-08T23:55:04.534Z,6.25
2024-02-08T23:58:12.389Z,6.20
